Time;durP1;ratioP1;P1;durP2;ratioP2;P2;SDS_P1;SDS_P2;PMS_P1;PMS_P2;Temp;Humidity;BMP_temperature;BMP_pressure;BME280_temperature;BME280_humidity;BME280_pressure;Samples;Min_cycle;Max_cycle;Signal;HPM_P1;HPM_P2
2024/03/12 00:02:00;;;;;;;4.97;3.42;;;;;;;12.64;100.00;99268.47;5098569;28;20036;-65
2024/03/12 00:04:28;;;;;;;6.10;3.17;;;;;;;12.65;100.00;99270.09;5098945;28;20179;-64
2024/03/12 00:06:54;;;;;;;5.60;3.47;;;;;;;12.66;100.00;99284.22;5098537;28;20039;-64
2024/03/12 00:09:19;;;;;;;6.93;3.20;;;;;;;12.55;100.00;99266.09;5098472;28;20040;-65
2024/03/12 00:11:45;;;;;;;8.05;3.80;;;;;;;12.60;100.00;99251.25;5097652;28;20039;-66
2024/03/12 00:14:11;;;;;;;7.03;4.47;;;;;;;12.57;100.00;99253.44;5097653;28;20043;-64
2024/03/12 00:16:40;;;;;;;5.93;3.35;;;;;;;12.47;100.00;99261.69;5098374;28;20101;-64
2024/03/12 00:19:06;;;;;;;8.50;3.80;;;;;;;12.47;100.00;99246.56;5097676;28;20032;-63
2024/03/12 00:21:31;;;;;;;7.03;3.40;;;;;;;12.46;100.00;99244.94;5098228;28;20062;-63
2024/03/12 00:23:58;;;;;;;6.35;3.83;;;;;;;12.52;100.00;99234.59;5097782;28;20345;-66
2024/03/12 00:26:24;;;;;;;9.65;4.38;;;;;;;12.53;100.00;99230.94;5097554;28;20294;-66
2024/03/12 00:28:49;;;;;;;6.90;3.25;;;;;;;12.62;100.00;99235.94;5098047;28;20073;-64
2024/03/12 00:31:16;;;;;;;6.53;3.63;;;;;;;12.60;100.00;99240.63;5097940;28;20032;-63
2024/03/12 00:33:42;;;;;;;8.50;3.85;;;;;;;12.70;100.00;99238.50;5097753;28;20039;-63
2024/03/12 00:36:08;;;;;;;7.40;4.13;;;;;;;12.63;100.00;99218.19;5097837;28;20032;-64
2024/03/12 00:38:33;;;;;;;6.75;3.60;;;;;;;12.53;100.00;99218.47;5097977;28;20042;-63
2024/03/12 00:40:59;;;;;;;9.80;4.13;;;;;;;12.49;100.00;99225.19;5097842;28;20040;-66
2024/03/12 00:43:24;;;;;;;7.80;4.70;;;;;;;12.40;100.00;99219.13;5097694;28;20261;-63
2024/03/12 00:45:50;;;;;;;9.43;4.47;;;;;;;12.35;100.00;99223.34;5097887;28;20042;-63
2024/03/12 00:48:17;;;;;;;9.10;4.07;;;;;;;12.35;100.00;99210.91;5097435;28;20040;-63
2024/03/12 00:50:45;;;;;;;7.10;4.05;;;;;;;12.24;100.00;99190.13;5097325;28;20036;-64
2024/03/12 00:53:11;;;;;;;8.30;4.47;;;;;;;12.25;100.00;99193.63;5097061;28;20449;-63
2024/03/12 00:55:37;;;;;;;7.32;4.40;;;;;;;12.14;100.00;99185.13;5096960;28;20089;-64
2024/03/12 00:58:09;;;;;;;9.23;5.53;;;;;;;12.19;100.00;99183.75;5097461;28;20095;-63
2024/03/12 01:00:36;;;;;;;9.98;4.93;;;;;;;12.08;100.00;99169.13;5095590;28;20036;-65
2024/03/12 01:03:05;;;;;;;11.32;5.78;;;;;;;12.12;100.00;99173.03;5096461;28;20059;-65
2024/03/12 01:05:31;;;;;;;8.63;4.72;;;;;;;12.18;100.00;99174.13;5096735;28;20111;-64
2024/03/12 01:08:00;;;;;;;11.27;5.20;;;;;;;12.50;100.00;99176.38;5097206;28;20051;-64
2024/03/12 01:10:30;;;;;;;11.38;5.70;;;;;;;12.66;100.00;99168.16;5096915;28;20819;-64
2024/03/12 01:12:58;;;;;;;7.13;4.60;;;;;;;12.88;100.00;99171.63;5097282;28;20063;-66
2024/03/12 01:15:25;;;;;;;10.45;5.90;;;;;;;13.04;100.00;99173.19;5096864;28;20028;-64
2024/03/12 01:17:53;;;;;;;6.85;4.50;;;;;;;13.17;100.00;99177.84;5097060;28;20044;-65
2024/03/12 01:20:20;;;;;;;7.20;4.10;;;;;;;13.28;100.00;99169.34;5096863;28;20308;-64
2024/03/12 01:22:51;;;;;;;9.63;5.20;;;;;;;13.37;100.00;99174.31;5097339;28;20036;-64
2024/03/12 01:25:21;;;;;;;8.30;5.10;;;;;;;13.47;100.00;99163.31;5096764;28;20028;-64
2024/03/12 01:27:46;;;;;;;7.88;4.72;;;;;;;13.52;100.00;99160.91;5097024;28;20090;-64
2024/03/12 01:30:16;;;;;;;9.90;5.32;;;;;;;13.54;100.00;99174.88;5097301;28;20535;-64
2024/03/12 01:32:42;;;;;;;7.40;4.35;;;;;;;13.56;100.00;99164.84;5096638;28;20023;-66
2024/03/12 01:35:08;;;;;;;8.98;5.65;;;;;;;13.39;100.00;99152.84;5095711;28;20032;-66
2024/03/12 01:37:41;;;;;;;7.07;4.50;;;;;;;13.56;100.00;99151.56;5095598;28;20103;-64
2024/03/12 01:40:21;;;;;;;8.68;5.00;;;;;;;13.65;100.00;99158.34;5095105;28;20261;-63
2024/03/12 01:42:52;;;;;;;10.82;5.40;;;;;;;13.63;100.00;99159.56;5095491;28;20273;-64
2024/03/12 01:45:21;;;;;;;9.57;4.93;;;;;;;13.56;100.00;99156.06;5096539;28;20023;-66
2024/03/12 01:47:49;;;;;;;11.65;6.35;;;;;;;13.62;100.00;99157.94;5095915;28;20035;-66
2024/03/12 01:50:17;;;;;;;10.55;5.53;;;;;;;13.68;100.00;99152.66;5096052;28;20642;-64
2024/03/12 01:52:43;;;;;;;8.70;5.88;;;;;;;13.68;100.00;99144.66;5116432;28;20044;-64
2024/03/12 01:55:18;;;;;;;7.80;5.50;;;;;;;13.74;100.00;99135.91;5094729;28;20114;-64
2024/03/12 01:57:47;;;;;;;10.55;5.97;;;;;;;13.78;100.00;99143.47;5096300;28;20070;-64
2024/03/12 02:00:14;;;;;;;8.50;5.95;;;;;;;13.83;100.00;99141.06;5094481;28;20094;-64
2024/03/12 02:02:41;;;;;;;9.82;5.75;;;;;;;13.85;100.00;99144.34;5096086;28;20234;-64
2024/03/12 02:05:07;;;;;;;10.93;6.30;;;;;;;13.90;100.00;99152.53;5094715;28;20028;-66
2024/03/12 02:07:37;;;;;;;10.20;6.13;;;;;;;13.86;100.00;99162.75;5095490;28;20027;-66
2024/03/12 02:10:04;;;;;;;9.65;6.18;;;;;;;13.81;100.00;99175.84;5094880;28;20344;-64
2024/03/12 02:12:30;;;;;;;9.18;6.43;;;;;;;13.76;100.00;99175.59;5096933;28;20122;-64
2024/03/12 02:14:56;;;;;;;14.00;7.70;;;;;;;13.63;100.00;99167.56;5095542;28;20369;-64
2024/03/12 02:17:22;;;;;;;11.30;6.82;;;;;;;13.55;100.00;99165.88;5095784;28;20032;-64
2024/03/12 02:19:47;;;;;;;14.63;8.85;;;;;;;13.41;100.00;99167.59;5095033;28;20274;-64
2024/03/12 02:22:13;;;;;;;17.33;9.77;;;;;;;13.26;100.00;99189.97;5095199;28;20348;-66
2024/03/12 02:24:38;;;;;;;18.20;11.18;;;;;;;13.12;100.00;99199.66;5095540;28;20039;-66
2024/03/12 02:27:04;;;;;;;24.25;12.82;;;;;;;12.92;100.00;99226.03;5095667;28;20036;-63
2024/03/12 02:29:31;;;;;;;27.05;14.93;;;;;;;12.62;100.00;99219.19;5095759;28;20081;-64
2024/03/12 02:31:57;;;;;;;29.30;15.25;;;;;;;12.52;100.00;99213.34;5093216;28;20043;-63
2024/03/12 02:34:23;;;;;;;26.83;15.93;;;;;;;12.45;100.00;99216.72;5095941;28;20066;-64
2024/03/12 02:36:48;;;;;;;27.52;15.07;;;;;;;12.36;100.00;99222.34;5094582;28;20027;-66
2024/03/12 02:39:14;;;;;;;30.30;16.27;;;;;;;12.24;100.00;99206.06;5096508;28;20028;-64
2024/03/12 02:41:40;;;;;;;31.33;18.90;;;;;;;12.25;100.00;99218.31;5094683;28;20069;-64
2024/03/12 02:44:06;;;;;;;31.30;15.63;;;;;;;12.25;100.00;99198.91;5095317;28;20099;-64
2024/03/12 02:46:31;;;;;;;27.27;15.40;;;;;;;12.25;100.00;99194.44;5094588;28;20040;-64
2024/03/12 02:48:57;;;;;;;26.77;14.52;;;;;;;12.31;100.00;99209.63;5095590;28;20043;-64
2024/03/12 02:51:23;;;;;;;24.70;13.70;;;;;;;12.39;100.00;99214.00;5094046;28;20039;-64
2024/03/12 02:53:49;;;;;;;21.42;12.85;;;;;;;12.45;100.00;99211.41;5097853;28;20032;-63
2024/03/12 02:56:15;;;;;;;26.92;14.05;;;;;;;12.55;100.00;99216.47;5107475;28;20877;-64
2024/03/12 02:58:41;;;;;;;26.05;13.80;;;;;;;12.55;100.00;99226.25;5095029;28;20108;-66
2024/03/12 03:01:06;;;;;;;25.73;14.68;;;;;;;12.46;100.00;99214.91;5092526;28;20042;-64
2024/03/12 03:03:33;;;;;;;31.55;16.20;;;;;;;12.44;100.00;99209.78;5095145;28;20333;-64
2024/03/12 03:05:59;;;;;;;33.65;16.67;;;;;;;12.36;100.00;99212.53;5095613;28;20097;-64
2024/03/12 03:08:27;;;;;;;28.48;16.73;;;;;;;12.35;100.00;99221.50;5095430;28;20073;-63
2024/03/12 03:10:54;;;;;;;29.75;17.35;;;;;;;12.35;100.00;99234.78;5088565;28;21568;-66
2024/03/12 03:13:19;;;;;;;31.20;17.90;;;;;;;12.32;100.00;99227.19;5093621;28;20051;-64
2024/03/12 03:15:45;;;;;;;30.55;18.00;;;;;;;12.38;100.00;99229.09;5095512;28;20379;-64
2024/03/12 03:18:12;;;;;;;28.08;16.75;;;;;;;12.39;100.00;99229.94;5094648;28;20032;-64
2024/03/12 03:20:38;;;;;;;32.10;14.93;;;;;;;12.42;100.00;99227.72;5095220;28;20028;-64
2024/03/12 03:23:04;;;;;;;30.63;14.90;;;;;;;12.49;100.00;99234.97;5094645;28;20024;-64
2024/03/12 03:25:30;;;;;;;34.13;18.15;;;;;;;12.44;100.00;99248.78;5098891;28;20042;-64
2024/03/12 03:27:55;;;;;;;35.60;19.35;;;;;;;12.37;100.00;99231.94;5098769;28;20035;-64
2024/03/12 03:30:21;;;;;;;34.58;18.77;;;;;;;12.38;100.00;99246.88;5098513;28;20216;-66
2024/03/12 03:32:47;;;;;;;33.47;18.08;;;;;;;12.42;100.00;99242.84;5098436;28;20035;-66
2024/03/12 03:35:13;;;;;;;32.40;16.27;;;;;;;12.44;100.00;99244.28;5098427;28;20047;-64
2024/03/12 03:37:40;;;;;;;23.55;13.45;;;;;;;12.44;100.00;99244.28;5098780;28;20028;-64
2024/03/12 03:40:10;;;;;;;21.20;13.52;;;;;;;12.33;100.00;99238.63;5098042;28;20080;-64
2024/03/12 03:42:37;;;;;;;17.42;11.90;;;;;;;12.33;100.00;99238.63;5098788;28;20024;-64
2024/03/12 03:45:03;;;;;;;22.98;13.75;;;;;;;12.28;100.00;99236.53;5097858;28;20103;-64
2024/03/12 03:47:34;;;;;;;19.77;11.45;;;;;;;12.33;100.00;99241.28;5099418;28;20103;-66
2024/03/12 03:50:07;;;;;;;15.98;8.65;;;;;;;12.27;100.00;99252.66;5096837;28;20032;-64
2024/03/12 03:52:33;;;;;;;14.38;9.00;;;;;;;12.20;100.00;99249.91;5099237;28;20035;-64
2024/03/12 03:54:59;;;;;;;17.08;9.15;;;;;;;12.18;100.00;99270.50;5096937;28;20381;-64
2024/03/12 03:57:24;;;;;;;18.98;8.88;;;;;;;12.15;100.00;99270.88;5098781;28;20039;-63
2024/03/12 03:59:50;;;;;;;16.48;10.48;;;;;;;12.07;100.00;99278.94;5097235;28;20032;-64
2024/03/12 04:02:20;;;;;;;16.38;9.40;;;;;;;11.98;100.00;99272.88;5098197;28;20075;-66
2024/03/12 04:04:46;;;;;;;11.02;7.60;;;;;;;11.94;100.00;99278.75;5097781;28;20242;-64
2024/03/12 04:07:12;;;;;;;11.00;6.72;;;;;;;11.99;100.00;99282.50;5098522;28;20063;-64
2024/03/12 04:09:38;;;;;;;10.88;6.43;;;;;;;11.94;100.00;99292.81;5096613;28;20048;-64
2024/03/12 04:12:04;;;;;;;14.65;7.45;;;;;;;11.88;100.00;99300.69;5098360;28;20051;-64
2024/03/12 04:14:30;;;;;;;10.48;5.47;;;;;;;11.85;100.00;99293.91;5097946;28;20051;-64
2024/03/12 04:16:55;;;;;;;3.58;1.95;;;;;;;11.57;100.00;99309.56;5098637;28;20222;-66
2024/03/12 04:19:21;;;;;;;3.40;1.58;;;;;;;11.57;100.00;99311.38;5098929;28;20043;-65
2024/03/12 04:21:46;;;;;;;6.07;1.77;;;;;;;11.53;100.00;99313.56;5096252;28;20032;-64
2024/03/12 04:24:13;;;;;;;3.38;1.48;;;;;;;11.54;100.00;99317.03;5098495;28;20238;-64
2024/03/12 04:26:39;;;;;;;4.00;1.50;;;;;;;11.61;100.00;99321.47;5098155;28;20032;-64
2024/03/12 04:29:05;;;;;;;4.68;2.25;;;;;;;11.73;100.00;99316.53;5098797;28;20036;-65
2024/03/12 04:31:31;;;;;;;4.78;2.10;;;;;;;11.82;100.00;99320.81;5096725;28;20308;-66
2024/03/12 04:33:57;;;;;;;4.82;2.60;;;;;;;11.89;100.00;99311.13;5097993;28;20043;-64
2024/03/12 04:36:22;;;;;;;4.00;2.13;;;;;;;11.92;100.00;99302.78;5096008;28;20047;-64
2024/03/12 04:38:49;;;;;;;3.38;2.80;;;;;;;11.98;100.00;99309.22;5098773;28;20035;-64
2024/03/12 04:41:20;;;;;;;6.00;3.72;;;;;;;12.02;100.00;99321.94;5097712;28;20279;-64
2024/03/12 04:43:47;;;;;;;6.90;4.43;;;;;;;12.05;100.00;99323.41;5098079;28;20103;-64
2024/03/12 04:46:12;;;;;;;7.63;4.57;;;;;;;12.13;100.00;99310.03;5096335;28;20032;-64
2024/03/12 04:48:38;;;;;;;9.52;4.55;;;;;;;12.21;100.00;99296.69;5098237;28;20035;-66
2024/03/12 04:51:03;;;;;;;5.93;3.13;;;;;;;12.20;100.00;99296.88;5097446;28;20326;-66
2024/03/12 04:53:29;;;;;;;7.70;3.60;;;;;;;12.30;100.00;99292.09;5097103;28;20036;-64
2024/03/12 04:55:54;;;;;;;7.57;3.45;;;;;;;12.36;100.00;99278.09;5097461;28;20036;-65
2024/03/12 04:58:20;;;;;;;7.28;3.17;;;;;;;12.46;100.00;99282.09;5095884;28;20039;-64
2024/03/12 05:00:45;;;;;;;5.47;2.85;;;;;;;12.56;100.00;99265.91;5097467;28;20038;-66
2024/03/12 05:03:11;;;;;;;5.13;3.15;;;;;;;12.61;100.00;99260.03;5097275;28;20429;-65
2024/03/12 05:05:36;;;;;;;5.15;2.92;;;;;;;12.73;100.00;99256.72;5096942;28;20036;-64
2024/03/12 05:08:02;;;;;;;6.88;3.30;;;;;;;12.82;100.00;99260.06;5096337;28;20044;-64
2024/03/12 05:10:27;;;;;;;4.15;3.30;;;;;;;12.88;100.00;99279.75;5097775;28;20036;-64
2024/03/12 05:12:53;;;;;;;5.22;3.60;;;;;;;12.86;100.00;99282.59;5096106;28;20051;-64
2024/03/12 05:15:20;;;;;;;6.90;3.25;;;;;;;12.81;100.00;99273.53;5093363;28;20044;-65
2024/03/12 05:17:48;;;;;;;4.40;2.45;;;;;;;12.87;100.00;99267.47;5098152;28;20111;-64
2024/03/12 05:20:17;;;;;;;4.00;2.33;;;;;;;12.92;100.00;99275.72;5096672;28;20099;-64
2024/03/12 05:22:44;;;;;;;3.45;2.63;;;;;;;12.95;100.00;99280.66;5096101;28;20032;-64
2024/03/12 05:25:19;;;;;;;5.72;3.45;;;;;;;12.93;100.00;99280.84;5097549;28;20028;-64
2024/03/12 05:27:45;;;;;;;6.90;3.80;;;;;;;13.03;100.00;99286.66;5097573;28;20036;-64
2024/03/12 05:30:14;;;;;;;6.32;4.78;;;;;;;13.00;100.00;99291.53;5097375;28;20270;-66
2024/03/12 05:32:45;;;;;;;7.68;4.15;;;;;;;12.96;100.00;99299.06;5097226;28;20036;-66
2024/03/12 05:35:21;;;;;;;7.40;4.22;;;;;;;12.88;100.00;99308.97;5096246;28;20405;-64
2024/03/12 05:38:08;;;;;;;10.82;5.15;;;;;;;12.83;100.00;99292.78;5097410;28;20047;-65
2024/03/12 05:40:43;;;;;;;7.32;4.07;;;;;;;12.77;100.00;99294.34;5097264;28;20040;-64
2024/03/12 05:48:40;;;;;;;8.65;4.55;;;;;;;12.56;100.00;99273.88;5097439;28;20106;-64
2024/03/12 05:51:07;;;;;;;6.97;3.88;;;;;;;12.67;100.00;99278.72;5097537;28;20040;-64
2024/03/12 05:53:33;;;;;;;6.88;3.97;;;;;;;12.66;100.00;99265.63;5096465;28;20118;-64
2024/03/12 05:55:59;;;;;;;7.55;4.05;;;;;;;12.76;100.00;99264.31;5094938;28;20055;-65
2024/03/12 05:58:25;;;;;;;7.75;3.90;;;;;;;12.81;100.00;99261.09;5097045;28;20203;-65
2024/03/12 06:00:51;;;;;;;4.45;3.22;;;;;;;12.65;100.00;99259.47;5097464;28;20318;-64
2024/03/12 06:03:18;;;;;;;4.28;2.90;;;;;;;12.37;100.00;99256.66;5096967;28;20020;-64
2024/03/12 06:05:44;;;;;;;5.00;2.78;;;;;;;12.38;100.00;99260.97;5095723;28;20396;-66
2024/03/12 06:08:09;;;;;;;4.75;2.13;;;;;;;12.50;100.00;99264.00;5096426;28;20111;-65
2024/03/12 06:10:35;;;;;;;4.32;2.22;;;;;;;12.26;100.00;99258.97;5096947;28;20215;-65
2024/03/12 06:13:00;;;;;;;3.50;2.22;;;;;;;11.98;100.00;99249.00;5096268;28;20043;-64
2024/03/12 06:15:26;;;;;;;4.50;2.85;;;;;;;12.03;100.00;99251.94;5097209;28;20048;-65
2024/03/12 06:17:52;;;;;;;9.80;5.60;;;;;;;12.03;100.00;99259.91;5096724;28;20035;-66
2024/03/12 06:20:17;;;;;;;10.27;7.00;;;;;;;12.07;100.00;99258.53;5097246;28;20118;-66
2024/03/12 06:22:43;;;;;;;11.32;7.25;;;;;;;12.11;100.00;99251.84;5096714;28;20315;-64
2024/03/12 06:25:10;;;;;;;12.80;8.05;;;;;;;12.18;100.00;99254.56;5097095;28;20144;-64
2024/03/12 06:27:38;;;;;;;6.50;4.38;;;;;;;12.07;100.00;99245.25;5096357;28;20051;-64
2024/03/12 06:30:05;;;;;;;6.38;3.50;;;;;;;12.12;100.00;99245.53;5096446;28;20040;-64
2024/03/12 06:32:32;;;;;;;5.47;3.20;;;;;;;12.07;100.00;99255.88;5096336;28;20286;-64
2024/03/12 06:34:58;;;;;;;4.43;2.17;;;;;;;11.98;100.00;99256.97;5096371;28;20046;-64
2024/03/12 06:37:27;;;;;;;4.03;2.25;;;;;;;11.79;100.00;99262.81;5096472;28;20044;-64
2024/03/12 06:39:53;;;;;;;4.07;2.22;;;;;;;11.61;100.00;99259.66;5096249;28;20297;-66
2024/03/12 06:42:25;;;;;;;7.20;2.60;;;;;;;11.33;100.00;99275.28;5096161;28;20078;-64
2024/03/12 06:44:52;;;;;;;4.18;2.30;;;;;;;11.24;100.00;99292.25;5095758;28;20036;-64
2024/03/12 06:47:19;;;;;;;3.95;2.10;;;;;;;11.33;100.00;99291.19;5096097;28;20036;-65
2024/03/12 06:49:45;;;;;;;5.05;3.58;;;;;;;11.47;100.00;99304.50;5096487;28;20256;-65
2024/03/12 06:52:14;;;;;;;5.70;2.72;;;;;;;11.70;100.00;99303.66;5095993;28;20322;-66
2024/03/12 06:54:39;;;;;;;4.22;2.75;;;;;;;11.95;100.00;99312.22;5096656;28;20028;-64
2024/03/12 06:57:06;;;;;;;4.13;2.30;;;;;;;12.14;100.00;99299.25;5096715;28;20039;-64
2024/03/12 06:59:33;;;;;;;3.45;2.60;;;;;;;12.26;100.00;99307.56;5100626;28;20450;-64
2024/03/12 07:01:59;;;;;;;1.95;1.63;;;;;;;12.32;100.00;99292.75;5100019;28;20103;-64
2024/03/12 07:04:26;;;;;;;3.75;2.47;;;;;;;12.33;100.00;99295.22;5099835;28;20044;-64
2024/03/12 07:06:51;;;;;;;6.03;3.80;;;;;;;12.41;100.00;99305.72;5099711;28;20059;-65
2024/03/12 07:09:26;;;;;;;3.80;2.88;;;;;;;12.55;100.00;99303.28;5099615;28;20052;-65
2024/03/12 07:11:58;;;;;;;2.95;2.28;;;;;;;12.63;100.00;99304.00;5100051;28;20101;-64
2024/03/12 07:14:27;;;;;;;3.30;1.80;;;;;;;12.68;100.00;99298.94;5100310;28;20111;-67
2024/03/12 07:16:53;;;;;;;3.22;1.77;;;;;;;12.70;100.00;99291.63;5099810;28;20042;-67
2024/03/12 07:19:22;;;;;;;4.07;1.88;;;;;;;12.73;100.00;99293.91;5100189;28;20054;-64
2024/03/12 07:21:48;;;;;;;3.47;2.00;;;;;;;12.72;100.00;99284.28;5099673;28;20032;-64
2024/03/12 07:24:15;;;;;;;2.30;1.65;;;;;;;12.73;100.00;99263.84;5099766;28;20092;-64
2024/03/12 07:26:40;;;;;;;2.88;1.85;;;;;;;12.71;100.00;99257.91;5099961;28;20044;-66
2024/03/12 07:29:09;;;;;;;2.63;1.67;;;;;;;12.76;100.00;99263.47;5099714;28;20032;-66
2024/03/12 07:31:35;;;;;;;5.30;2.08;;;;;;;12.87;100.00;99260.31;5100052;28;20032;-64
2024/03/12 07:34:01;;;;;;;5.00;4.22;;;;;;;13.00;100.00;99263.13;5099419;28;20048;-64
2024/03/12 07:36:29;;;;;;;3.72;1.80;;;;;;;13.16;100.00;99253.25;5099797;28;20035;-64
2024/03/12 07:38:56;;;;;;;2.60;1.65;;;;;;;13.32;100.00;99258.34;5099809;28;20031;-64
2024/03/12 07:41:23;;;;;;;2.20;1.90;;;;;;;13.18;100.00;99253.91;5100000;28;20333;-65
2024/03/12 07:43:49;;;;;;;3.63;1.83;;;;;;;13.34;100.00;99256.31;5099776;28;20044;-64
2024/03/12 07:46:17;;;;;;;2.30;1.50;;;;;;;13.65;100.00;99255.97;5096252;28;20196;-64
2024/03/12 07:48:43;;;;;;;2.10;1.30;;;;;;;13.88;100.00;99255.72;5098899;28;20114;-65
2024/03/12 07:51:09;;;;;;;1.30;1.02;;;;;;;14.02;100.00;99255.59;5099058;28;20310;-66
2024/03/12 07:53:36;;;;;;;2.03;1.13;;;;;;;14.07;100.00;99253.16;5098975;28;20043;-64
2024/03/12 07:56:05;;;;;;;3.13;1.20;;;;;;;13.91;100.00;99253.50;5098399;28;20237;-65
2024/03/12 07:58:30;;;;;;;1.23;0.85;;;;;;;14.30;100.00;99246.72;5098228;28;20107;-64
2024/03/12 08:00:56;;;;;;;1.70;0.90;;;;;;;14.41;100.00;99248.81;5099362;28;20044;-65
2024/03/12 08:03:21;;;;;;;1.35;1.17;;;;;;;14.36;100.00;99238.75;5098356;28;20036;-67
2024/03/12 08:05:48;;;;;;;2.28;1.25;;;;;;;14.22;100.00;99237.06;5098861;28;20234;-65
2024/03/12 08:08:13;;;;;;;1.52;0.80;;;;;;;14.20;100.00;99239.09;5098526;28;20063;-64
2024/03/12 08:10:39;;;;;;;1.80;0.80;;;;;;;14.21;100.00;99245.25;5098864;28;20222;-64
2024/03/12 08:13:08;;;;;;;0.40;0.40;;;;;;;14.15;100.00;99257.50;5098484;28;20365;-64
2024/03/12 08:15:34;;;;;;;0.70;0.60;;;;;;;14.15;100.00;99259.34;5098477;28;20085;-64
2024/03/12 08:18:01;;;;;;;1.17;0.80;;;;;;;14.29;100.00;99267.22;5098702;28;20907;-64
2024/03/12 08:20:27;;;;;;;0.85;0.50;;;;;;;14.31;100.00;99277.66;5097591;28;20032;-64
2024/03/12 08:22:52;;;;;;;0.60;0.55;;;;;;;14.37;100.00;99279.53;5097356;28;20028;-66
2024/03/12 08:25:18;;;;;;;0.73;0.60;;;;;;;14.27;100.00;99282.56;5098337;28;20054;-66
2024/03/12 08:27:44;;;;;;;3.03;0.93;;;;;;;14.49;100.00;99278.00;5097953;28;20039;-64
2024/03/12 08:30:11;;;;;;;1.55;0.82;;;;;;;14.82;100.00;99288.81;5097927;28;20237;-65
2024/03/12 08:32:41;;;;;;;1.67;0.70;;;;;;;15.08;100.00;99297.88;5098626;28;20326;-65
2024/03/12 08:35:09;;;;;;;1.27;0.68;;;;;;;15.20;100.00;99281.09;5098530;28;20302;-65
2024/03/12 08:37:34;;;;;;;3.83;0.90;;;;;;;15.32;100.00;99286.66;5098239;28;20100;-65
2024/03/12 08:40:00;;;;;;;1.52;0.93;;;;;;;15.49;100.00;99285.22;5099097;28;20103;-65
2024/03/12 08:42:26;;;;;;;1.38;1.00;;;;;;;15.21;100.00;99274.72;5098124;28;20074;-65
2024/03/12 08:44:53;;;;;;;1.83;1.05;;;;;;;15.13;100.00;99279.44;5098923;28;20032;-67
2024/03/12 08:47:19;;;;;;;1.88;0.68;;;;;;;15.11;100.00;99262.81;5098315;28;20047;-64
2024/03/12 08:49:45;;;;;;;1.10;0.85;;;;;;;15.32;100.00;99276.78;5098962;28;20039;-65
2024/03/12 08:52:10;;;;;;;1.48;0.98;;;;;;;15.26;100.00;99282.94;5098292;28;20074;-65
2024/03/12 08:54:36;;;;;;;2.30;1.30;;;;;;;15.32;100.00;99278.66;5098027;28;20043;-65
2024/03/12 08:57:01;;;;;;;2.83;1.90;;;;;;;15.31;100.00;99275.16;5098741;28;20051;-65
2024/03/12 08:59:28;;;;;;;2.20;1.50;;;;;;;15.32;100.00;99270.63;5097632;28;20040;-65
2024/03/12 09:01:57;;;;;;;2.00;1.80;;;;;;;15.52;100.00;99278.66;5097841;28;20044;-64
2024/03/12 09:04:23;;;;;;;1.40;1.17;;;;;;;15.22;100.00;99263.03;5098148;28;20032;-63
2024/03/12 09:06:49;;;;;;;2.75;1.45;;;;;;;15.56;100.00;99267.38;5097803;28;20068;-63
2024/03/12 09:09:15;;;;;;;2.42;2.13;;;;;;;15.71;100.00;99269.06;5097667;28;20066;-63
2024/03/12 09:11:41;;;;;;;2.20;1.20;;;;;;;15.76;100.00;99263.91;5098056;28;20067;-63
2024/03/12 09:14:07;;;;;;;2.42;1.58;;;;;;;15.73;100.00;99265.16;5098252;28;20066;-63
2024/03/12 09:16:37;;;;;;;1.60;1.15;;;;;;;15.62;100.00;99255.94;5098286;28;20061;-63
2024/03/12 09:19:04;;;;;;;1.77;1.50;;;;;;;15.75;100.00;99256.94;5097344;28;20043;-64
2024/03/12 09:21:32;;;;;;;1.77;1.38;;;;;;;15.77;100.00;99253.03;5096545;28;20047;-64
2024/03/12 09:23:58;;;;;;;5.53;1.63;;;;;;;15.81;100.00;99237.44;5097150;28;20439;-65
2024/03/12 09:26:24;;;;;;;1.00;0.93;;;;;;;15.60;100.00;99247.31;5097173;28;20040;-65
2024/03/12 09:28:49;;;;;;;2.28;0.90;;;;;;;15.52;100.00;99243.97;5097789;28;20035;-65
2024/03/12 09:31:15;;;;;;;1.30;0.90;;;;;;;15.52;100.00;99238.63;5097150;28;20042;-65
2024/03/12 09:33:41;;;;;;;1.17;0.80;;;;;;;15.36;100.00;99250.53;5096689;28;20365;-64
2024/03/12 09:36:07;;;;;;;1.08;0.80;;;;;;;15.47;100.00;99238.44;5094991;28;20047;-64
2024/03/12 09:38:33;;;;;;;1.65;0.88;;;;;;;15.52;100.00;99233.28;5097657;28;20076;-64
2024/03/12 09:41:03;;;;;;;1.50;1.10;;;;;;;15.64;100.00;99224.50;5096637;28;20118;-64
2024/03/12 09:43:32;;;;;;;1.08;0.85;;;;;;;15.57;100.00;99222.81;5097478;28;20188;-66
2024/03/12 09:46:02;;;;;;;1.55;0.93;;;;;;;15.37;100.00;99219.34;5095487;28;20032;-63
2024/03/12 09:48:29;;;;;;;1.42;0.77;;;;;;;15.18;100.00;99224.47;5096006;28;20043;-63
2024/03/12 09:50:56;;;;;;;1.55;0.68;;;;;;;15.22;100.00;99223.03;5096645;28;20688;-63
2024/03/12 09:53:23;;;;;;;1.17;0.70;;;;;;;15.36;100.00;99220.38;5096275;28;20379;-64
2024/03/12 09:55:49;;;;;;;1.40;0.90;;;;;;;15.27;100.00;99219.75;5095648;28;20046;-66
2024/03/12 09:58:16;;;;;;;1.92;0.82;;;;;;;15.45;100.00;99211.94;5096150;28;20036;-64
2024/03/12 10:00:42;;;;;;;0.95;0.77;;;;;;;15.69;100.00;99215.88;5096253;28;20036;-64
2024/03/12 10:03:09;;;;;;;1.10;1.00;;;;;;;15.54;100.00;99208.03;5096474;28;20089;-64
2024/03/12 10:05:34;;;;;;;2.80;0.80;;;;;;;15.75;100.00;99216.91;5095861;28;20052;-64
2024/03/12 10:08:14;;;;;;;1.40;0.90;;;;;;;15.80;100.00;99204.56;5096132;28;20048;-66
2024/03/12 10:10:44;;;;;;;0.82;0.65;;;;;;;15.87;100.00;99207.22;5096066;28;20264;-65
2024/03/12 10:13:17;;;;;;;1.00;0.70;;;;;;;15.99;100.00;99210.88;5095553;28;20040;-63
2024/03/12 10:15:51;;;;;;;1.33;0.70;;;;;;;15.77;100.00;99213.00;5095778;28;20310;-63
2024/03/12 10:18:18;;;;;;;1.05;0.80;;;;;;;15.96;100.00;99205.97;5096981;28;20048;-63
2024/03/12 10:20:56;;;;;;;1.00;0.68;;;;;;;16.05;99.72;99207.38;5095495;28;20047;-64
2024/03/12 10:23:25;;;;;;;0.80;0.65;;;;;;;16.12;100.00;99202.00;5097117;28;20044;-66
2024/03/12 10:25:51;;;;;;;1.02;0.50;;;;;;;16.14;100.00;99198.09;5095037;28;20048;-64
2024/03/12 10:28:24;;;;;;;1.45;0.77;;;;;;;16.01;100.00;99200.00;5097043;28;20073;-65
2024/03/12 10:30:51;;;;;;;1.00;0.95;;;;;;;15.98;100.00;99190.56;5094685;28;20040;-64
2024/03/12 10:33:18;;;;;;;2.65;1.20;;;;;;;15.99;100.00;99191.38;5099890;28;20051;-64
2024/03/12 10:35:45;;;;;;;1.73;1.20;;;;;;;15.92;100.00;99186.06;5096848;28;20036;-63
2024/03/12 10:38:25;;;;;;;1.27;1.17;;;;;;;15.61;100.00;99182.22;5100696;28;20042;-63
2024/03/12 10:40:52;;;;;;;2.38;1.52;;;;;;;15.61;100.00;99178.75;5097717;28;20192;-64
2024/03/12 10:43:20;;;;;;;1.52;1.30;;;;;;;15.68;100.00;99176.88;5096429;28;20237;-66
2024/03/12 10:45:49;;;;;;;1.95;1.20;;;;;;;15.77;100.00;99186.31;5099358;28;20112;-66
2024/03/12 10:48:15;;;;;;;2.00;1.52;;;;;;;15.77;100.00;99185.47;5099226;28;20032;-64
2024/03/12 10:50:42;;;;;;;2.22;1.10;;;;;;;15.74;100.00;99178.72;5098039;28;20050;-64
2024/03/12 10:53:11;;;;;;;1.08;0.85;;;;;;;15.52;100.00;99180.75;5098799;28;20028;-63
2024/03/12 10:55:38;;;;;;;1.40;0.85;;;;;;;15.33;100.00;99185.06;5099018;28;20039;-64
2024/03/12 10:58:06;;;;;;;0.93;0.75;;;;;;;15.38;100.00;99184.47;5098450;28;20034;-66
2024/03/12 11:00:33;;;;;;;1.98;0.80;;;;;;;15.53;100.00;99184.22;5099879;28;20048;-66
2024/03/12 11:02:59;;;;;;;1.15;0.88;;;;;;;15.55;100.00;99183.00;5099574;28;20028;-63
2024/03/12 11:05:32;;;;;;;1.17;0.93;;;;;;;15.73;100.00;99178.91;5099668;28;20079;-63
2024/03/12 11:07:59;;;;;;;0.80;0.75;;;;;;;15.83;100.00;99192.66;5100210;28;20103;-64
2024/03/12 11:10:28;;;;;;;1.13;0.80;;;;;;;15.95;100.00;99190.97;5099936;28;20113;-64
2024/03/12 11:13:00;;;;;;;1.48;0.80;;;;;;;15.66;100.00;99186.13;5100159;28;20099;-63
2024/03/12 11:15:26;;;;;;;0.80;0.80;;;;;;;15.59;100.00;99196.78;5099892;28;20028;-64
2024/03/12 11:17:51;;;;;;;0.82;0.60;;;;;;;15.33;100.00;99200.25;5100251;28;20347;-63
2024/03/12 11:20:21;;;;;;;1.95;0.75;;;;;;;15.45;100.00;99208.47;5099655;28;20349;-63
2024/03/12 11:22:47;;;;;;;0.60;0.60;;;;;;;15.48;100.00;99214.22;5099558;28;20035;-63
2024/03/12 11:25:25;;;;;;;0.60;0.60;;;;;;;15.57;100.00;99202.31;5099388;28;20024;-66
2024/03/12 11:28:20;;;;;;;1.50;0.50;;;;;;;15.71;100.00;99207.66;5099142;28;20081;-64